Terminal Aerodrome Forecast
Issued by NWS Bismarck, ND

Home | Current Version | Previous Version | Text Only | Print | Product List | Glossary Off
Versions: 1 2 3 4 5 6 7 8 9 10 11 12 13 14 15 16 17 18 19 20 21

000
FTUS43 KBIS 251500 AAA
TAFISN
TAF AMD
KISN 251524Z 2515/2612 34011KT P6SM -SHSN BKN015 OVC025
      TEMPO 2515/2518 BKN009 OVC013
     FM251800 33014KT P6SM -SHSN OVC015
     FM260000 33008KT P6SM SCT015 BKN035
     FM260600 33006KT P6SM SCT035=

USA.gov is the U.S. government's official web portal to all federal, state and local government web resources and services.